sensor_id;sensor_type;location;lat;lon;timestamp;pressure;altitude;pressure_sealevel;temperature
72236;BMP280;60146;52.498;13.462;2023-07-29T00:00:21;100581.03;;;20.12
72236;BMP280;60146;52.498;13.462;2023-07-29T00:02:46;100578.31;;;20.09
72236;BMP280;60146;52.498;13.462;2023-07-29T00:05:11;100576.25;;;20.03
72236;BMP280;60146;52.498;13.462;2023-07-29T00:07:37;100584.50;;;19.98
72236;BMP280;60146;52.498;13.462;2023-07-29T00:10:03;100577.91;;;19.92
72236;BMP280;60146;52.498;13.462;2023-07-29T00:12:28;100583.59;;;19.90
72236;BMP280;60146;52.498;13.462;2023-07-29T00:14:54;100579.03;;;19.91
72236;BMP280;60146;52.498;13.462;2023-07-29T00:17:20;100589.31;;;19.92
72236;BMP280;60146;52.498;13.462;2023-07-29T00:19:46;100573.00;;;19.94
72236;BMP280;60146;52.498;13.462;2023-07-29T00:22:11;100584.16;;;19.84
72236;BMP280;60146;52.498;13.462;2023-07-29T00:24:37;100578.34;;;19.79
72236;BMP280;60146;52.498;13.462;2023-07-29T00:27:02;100576.47;;;19.79
72236;BMP280;60146;52.498;13.462;2023-07-29T00:29:28;100574.75;;;19.71
72236;BMP280;60146;52.498;13.462;2023-07-29T00:31:53;100574.91;;;19.78
72236;BMP280;60146;52.498;13.462;2023-07-29T00:34:18;100576.91;;;19.66
72236;BMP280;60146;52.498;13.462;2023-07-29T00:36:45;100572.69;;;19.65
72236;BMP280;60146;52.498;13.462;2023-07-29T00:39:11;100575.28;;;19.62
72236;BMP280;60146;52.498;13.462;2023-07-29T00:41:36;100582.31;;;19.54
72236;BMP280;60146;52.498;13.462;2023-07-29T00:44:01;100578.78;;;19.51
72236;BMP280;60146;52.498;13.462;2023-07-29T00:46:28;100579.47;;;19.48
72236;BMP280;60146;52.498;13.462;2023-07-29T00:48:54;100577.03;;;19.43
72236;BMP280;60146;52.498;13.462;2023-07-29T00:51:19;100569.34;;;19.38
72236;BMP280;60146;52.498;13.462;2023-07-29T00:53:45;100566.25;;;19.36
72236;BMP280;60146;52.498;13.462;2023-07-29T00:56:10;100573.53;;;19.39
72236;BMP280;60146;52.498;13.462;2023-07-29T00:58:36;100576.91;;;19.36
72236;BMP280;60146;52.498;13.462;2023-07-29T01:01:01;100566.69;;;19.38
72236;BMP280;60146;52.498;13.462;2023-07-29T01:03:27;100560.16;;;19.35
72236;BMP280;60146;52.498;13.462;2023-07-29T01:08:38;100559.28;;;19.32
72236;BMP280;60146;52.498;13.462;2023-07-29T01:16:42;100542.16;;;19.29
72236;BMP280;60146;52.498;13.462;2023-07-29T01:19:26;100541.63;;;19.24
72236;BMP280;60146;52.498;13.462;2023-07-29T01:21:59;100530.59;;;19.22
72236;BMP280;60146;52.498;13.462;2023-07-29T01:24:24;100538.91;;;19.20
72236;BMP280;60146;52.498;13.462;2023-07-29T01:26:50;100531.69;;;19.21
72236;BMP280;60146;52.498;13.462;2023-07-29T01:29:15;100533.16;;;19.18
72236;BMP280;60146;52.498;13.462;2023-07-29T01:31:43;100527.41;;;19.16
72236;BMP280;60146;52.498;13.462;2023-07-29T01:34:18;100527.41;;;19.16
72236;BMP280;60146;52.498;13.462;2023-07-29T01:36:45;100520.56;;;19.15
72236;BMP280;60146;52.498;13.462;2023-07-29T01:39:12;100525.44;;;19.14
72236;BMP280;60146;52.498;13.462;2023-07-29T01:41:39;100525.44;;;19.14
72236;BMP280;60146;52.498;13.462;2023-07-29T01:44:06;100529.19;;;19.13
72236;BMP280;60146;52.498;13.462;2023-07-29T01:46:36;100533.06;;;19.15
72236;BMP280;60146;52.498;13.462;2023-07-29T01:49:01;100532.97;;;19.12
72236;BMP280;60146;52.498;13.462;2023-07-29T01:51:27;100537.84;;;19.10
72236;BMP280;60146;52.498;13.462;2023-07-29T01:53:52;100546.53;;;19.07
72236;BMP280;60146;52.498;13.462;2023-07-29T01:56:18;100538.44;;;19.03
72236;BMP280;60146;52.498;13.462;2023-07-29T01:58:43;100540.31;;;19.03
72236;BMP280;60146;52.498;13.462;2023-07-29T02:01:08;100535.72;;;19.00
72236;BMP280;60146;52.498;13.462;2023-07-29T02:03:34;100541.34;;;18.98
72236;BMP280;60146;52.498;13.462;2023-07-29T02:05:59;100534.94;;;18.99
72236;BMP280;60146;52.498;13.462;2023-07-29T02:08:24;100543.31;;;19.01
72236;BMP280;60146;52.498;13.462;2023-07-29T02:10:50;100543.31;;;19.01
72236;BMP280;60146;52.498;13.462;2023-07-29T02:13:15;100546.66;;;18.98
72236;BMP280;60146;52.498;13.462;2023-07-29T02:15:40;100546.25;;;18.97
72236;BMP280;60146;52.498;13.462;2023-07-29T02:18:06;100543.13;;;18.95
72236;BMP280;60146;52.498;13.462;2023-07-29T02:20:32;100546.13;;;18.93
72236;BMP280;60146;52.498;13.462;2023-07-29T02:22:57;100553.25;;;18.89
72236;BMP280;60146;52.498;13.462;2023-07-29T02:25:23;100545.63;;;18.88
72236;BMP280;60146;52.498;13.462;2023-07-29T02:27:48;100544.41;;;18.85
72236;BMP280;60146;52.498;13.462;2023-07-29T02:30:13;100541.75;;;18.85
72236;BMP280;60146;52.498;13.462;2023-07-29T02:32:39;100543.97;;;18.83
72236;BMP280;60146;52.498;13.462;2023-07-29T02:35:05;100539.78;;;18.82
72236;BMP280;60146;52.498;13.462;2023-07-29T02:37:30;100532.91;;;18.81
72236;BMP280;60146;52.498;13.462;2023-07-29T02:39:55;100538.22;;;18.81
72236;BMP280;60146;52.498;13.462;2023-07-29T02:42:21;100549.56;;;18.78
72236;BMP280;60146;52.498;13.462;2023-07-29T02:44:46;100541.56;;;18.78
72236;BMP280;60146;52.498;13.462;2023-07-29T02:47:12;100540.25;;;18.73
72236;BMP280;60146;52.498;13.462;2023-07-29T02:49:37;100534.94;;;18.73
72236;BMP280;60146;52.498;13.462;2023-07-29T02:52:02;100541.03;;;18.73
72236;BMP280;60146;52.498;13.462;2023-07-29T02:54:28;100540.06;;;18.66
72236;BMP280;60146;52.498;13.462;2023-07-29T02:56:53;100530.78;;;18.72
72236;BMP280;60146;52.498;13.462;2023-07-29T02:59:19;100535.63;;;18.70
72236;BMP280;60146;52.498;13.462;2023-07-29T03:01:45;100538.19;;;18.66
72236;BMP280;60146;52.498;13.462;2023-07-29T03:04:10;100538.63;;;18.68
72236;BMP280;60146;52.498;13.462;2023-07-29T03:06:38;100538.63;;;18.68
72236;BMP280;60146;52.498;13.462;2023-07-29T03:09:03;100545.38;;;18.66
72236;BMP280;60146;52.498;13.462;2023-07-29T03:11:30;100538.53;;;18.65
72236;BMP280;60146;52.498;13.462;2023-07-29T03:13:56;100536.31;;;18.67
72236;BMP280;60146;52.498;13.462;2023-07-29T03:16:22;100534.75;;;18.66
72236;BMP280;60146;52.498;13.462;2023-07-29T03:18:48;100538.84;;;18.63
72236;BMP280;60146;52.498;13.462;2023-07-29T03:21:13;100538.84;;;18.63
72236;BMP280;60146;52.498;13.462;2023-07-29T03:23:39;100539.63;;;18.64
72236;BMP280;60146;52.498;13.462;2023-07-29T03:26:04;100538.63;;;18.68
72236;BMP280;60146;52.498;13.462;2023-07-29T03:28:42;100539.41;;;18.69
72236;BMP280;60146;52.498;13.462;2023-07-29T03:31:09;100536.81;;;18.72
72236;BMP280;60146;52.498;13.462;2023-07-29T03:33:34;100531.44;;;18.69
72236;BMP280;60146;52.498;13.462;2023-07-29T03:36:00;100525.56;;;18.63
72236;BMP280;60146;52.498;13.462;2023-07-29T03:38:25;100532.34;;;18.61
72236;BMP280;60146;52.498;13.462;2023-07-29T03:40:51;100540.00;;;18.62
72236;BMP280;60146;52.498;13.462;2023-07-29T03:43:16;100517.28;;;18.65
72236;BMP280;60146;52.498;13.462;2023-07-29T03:45:41;100525.50;;;18.60
72236;BMP280;60146;52.498;13.462;2023-07-29T03:48:07;100524.38;;;18.61
72236;BMP280;60146;52.498;13.462;2023-07-29T03:50:34;100527.72;;;18.58
72236;BMP280;60146;52.498;13.462;2023-07-29T03:53:00;100525.16;;;18.61
72236;BMP280;60146;52.498;13.462;2023-07-29T03:55:26;100521.03;;;18.64
72236;BMP280;60146;52.498;13.462;2023-07-29T03:57:51;100521.91;;;18.68
72236;BMP280;60146;52.498;13.462;2023-07-29T04:00:16;100518.50;;;18.67
72236;BMP280;60146;52.498;13.462;2023-07-29T04:02:42;100510.53;;;18.67
72236;BMP280;60146;52.498;13.462;2023-07-29T04:05:08;100516.44;;;18.76
72236;BMP280;60146;52.498;13.462;2023-07-29T04:07:34;100515.78;;;18.79
72236;BMP280;60146;52.498;13.462;2023-07-29T04:10:00;100510.22;;;18.84
72236;BMP280;60146;52.498;13.462;2023-07-29T04:12:26;100506.44;;;18.85
72236;BMP280;60146;52.498;13.462;2023-07-29T04:14:52;100506.81;;;18.98
72236;BMP280;60146;52.498;13.462;2023-07-29T04:17:17;100504.53;;;18.97
72236;BMP280;60146;52.498;13.462;2023-07-29T04:19:42;100501.59;;;19.02
72236;BMP280;60146;52.498;13.462;2023-07-29T04:22:08;100492.66;;;19.10
72236;BMP280;60146;52.498;13.462;2023-07-29T04:24:33;100492.88;;;19.16
72236;BMP280;60146;52.498;13.462;2023-07-29T04:26:58;100500.03;;;19.31
72236;BMP280;60146;52.498;13.462;2023-07-29T04:29:25;100489.50;;;19.34
72236;BMP280;60146;52.498;13.462;2023-07-29T04:31:51;100487.34;;;19.40
72236;BMP280;60146;52.498;13.462;2023-07-29T04:34:17;100488.28;;;19.47
72236;BMP280;60146;52.498;13.462;2023-07-29T04:36:43;100486.16;;;19.52
72236;BMP280;60146;52.498;13.462;2023-07-29T04:39:08;100483.28;;;19.61
72236;BMP280;60146;52.498;13.462;2023-07-29T04:41:34;100481.16;;;19.66
72236;BMP280;60146;52.498;13.462;2023-07-29T04:43:59;100482.28;;;19.65
72236;BMP280;60146;52.498;13.462;2023-07-29T04:46:25;100493.25;;;19.64
72236;BMP280;60146;52.498;13.462;2023-07-29T04:48:50;100503.94;;;19.67
72236;BMP280;60146;52.498;13.462;2023-07-29T04:51:15;100495.03;;;19.60
72236;BMP280;60146;52.498;13.462;2023-07-29T04:53:41;100503.78;;;19.60
72236;BMP280;60146;52.498;13.462;2023-07-29T04:56:06;100493.75;;;19.69
72236;BMP280;60146;52.498;13.462;2023-07-29T04:58:31;100495.19;;;19.82
72236;BMP280;60146;52.498;13.462;2023-07-29T05:01:00;100488.09;;;19.89
72236;BMP280;60146;52.498;13.462;2023-07-29T05:03:25;100486.53;;;20.03
72236;BMP280;60146;52.498;13.462;2023-07-29T05:05:51;100482.34;;;20.21
72236;BMP280;60146;52.498;13.462;2023-07-29T05:08:18;100476.38;;;20.27
72236;BMP280;60146;52.498;13.462;2023-07-29T05:10:43;100482.47;;;20.27
72236;BMP280;60146;52.498;13.462;2023-07-29T05:13:09;100470.38;;;20.30
72236;BMP280;60146;52.498;13.462;2023-07-29T05:15:34;100483.16;;;20.25
72236;BMP280;60146;52.498;13.462;2023-07-29T05:17:59;100484.84;;;20.32
72236;BMP280;60146;52.498;13.462;2023-07-29T05:20:25;100482.19;;;20.32
72236;BMP280;60146;52.498;13.462;2023-07-29T05:22:50;100475.00;;;20.55
72236;BMP280;60146;52.498;13.462;2023-07-29T05:25:16;100462.00;;;20.72
72236;BMP280;60146;52.498;13.462;2023-07-29T05:27:41;100464.78;;;21.00
72236;BMP280;60146;52.498;13.462;2023-07-29T05:30:07;100458.97;;;21.17
72236;BMP280;60146;52.498;13.462;2023-07-29T05:32:32;100462.41;;;21.43
72236;BMP280;60146;52.498;13.462;2023-07-29T05:34:58;100458.75;;;21.54
72236;BMP280;60146;52.498;13.462;2023-07-29T05:37:23;100464.66;;;21.66
72236;BMP280;60146;52.498;13.462;2023-07-29T05:39:48;100466.59;;;21.69
72236;BMP280;60146;52.498;13.462;2023-07-29T05:42:14;100459.63;;;21.61
72236;BMP280;60146;52.498;13.462;2023-07-29T05:44:39;100467.53;;;21.55
72236;BMP280;60146;52.498;13.462;2023-07-29T05:47:05;100474.75;;;21.54
72236;BMP280;60146;52.498;13.462;2023-07-29T05:49:30;100472.91;;;21.58
72236;BMP280;60146;52.498;13.462;2023-07-29T05:51:56;100481.03;;;21.68
72236;BMP280;60146;52.498;13.462;2023-07-29T05:54:21;100470.50;;;21.75
72236;BMP280;60146;52.498;13.462;2023-07-29T05:56:47;100474.38;;;21.81
72236;BMP280;60146;52.498;13.462;2023-07-29T05:59:12;100468.16;;;21.70
72236;BMP280;60146;52.498;13.462;2023-07-29T06:01:37;100461.16;;;21.62
72236;BMP280;60146;52.498;13.462;2023-07-29T06:04:03;100466.28;;;21.74
72236;BMP280;60146;52.498;13.462;2023-07-29T06:06:28;100451.91;;;21.82
72236;BMP280;60146;52.498;13.462;2023-07-29T06:08:54;100455.13;;;21.97
72236;BMP280;60146;52.498;13.462;2023-07-29T06:11:19;100440.22;;;22.25
72236;BMP280;60146;52.498;13.462;2023-07-29T06:13:47;100433.72;;;22.26
72236;BMP280;60146;52.498;13.462;2023-07-29T06:16:12;100429.47;;;22.18
72236;BMP280;60146;52.498;13.462;2023-07-29T06:18:37;100422.69;;;22.31
72236;BMP280;60146;52.498;13.462;2023-07-29T06:21:03;100432.25;;;22.32
72236;BMP280;60146;52.498;13.462;2023-07-29T06:23:32;100419.63;;;22.26
72236;BMP280;60146;52.498;13.462;2023-07-29T06:25:58;100424.47;;;22.17
72236;BMP280;60146;52.498;13.462;2023-07-29T06:28:25;100426.78;;;22.18
72236;BMP280;60146;52.498;13.462;2023-07-29T06:30:51;100426.06;;;22.25
72236;BMP280;60146;52.498;13.462;2023-07-29T06:33:16;100429.84;;;22.20
72236;BMP280;60146;52.498;13.462;2023-07-29T06:35:41;100437.59;;;22.32
72236;BMP280;60146;52.498;13.462;2023-07-29T06:38:07;100428.91;;;22.42
72236;BMP280;60146;52.498;13.462;2023-07-29T06:40:32;100431.59;;;22.42
72236;BMP280;60146;52.498;13.462;2023-07-29T06:42:58;100433.19;;;22.49
72236;BMP280;60146;52.498;13.462;2023-07-29T06:45:23;100429.47;;;22.61
72236;BMP280;60146;52.498;13.462;2023-07-29T06:47:48;100436.03;;;22.70
72236;BMP280;60146;52.498;13.462;2023-07-29T06:50:13;100435.34;;;22.76
72236;BMP280;60146;52.498;13.462;2023-07-29T06:52:39;100438.06;;;22.83
72236;BMP280;60146;52.498;13.462;2023-07-29T06:55:05;100442.13;;;23.13
72236;BMP280;60146;52.498;13.462;2023-07-29T06:57:31;100446.00;;;23.22
72236;BMP280;60146;52.498;13.462;2023-07-29T06:59:57;100444.66;;;23.58
72236;BMP280;60146;52.498;13.462;2023-07-29T07:02:26;100450.03;;;23.65
72236;BMP280;60146;52.498;13.462;2023-07-29T07:04:52;100446.94;;;23.56
72236;BMP280;60146;52.498;13.462;2023-07-29T07:07:18;100444.66;;;23.65
72236;BMP280;60146;52.498;13.462;2023-07-29T07:09:43;100450.88;;;23.76
72236;BMP280;60146;52.498;13.462;2023-07-29T07:12:08;100449.28;;;23.75
72236;BMP280;60146;52.498;13.462;2023-07-29T07:14:37;100442.53;;;24.08
72236;BMP280;60146;52.498;13.462;2023-07-29T07:17:10;100450.56;;;24.08
72236;BMP280;60146;52.498;13.462;2023-07-29T07:19:40;100454.34;;;23.93
72236;BMP280;60146;52.498;13.462;2023-07-29T07:22:06;100452.47;;;23.97
72236;BMP280;60146;52.498;13.462;2023-07-29T07:24:32;100453.28;;;24.25
72236;BMP280;60146;52.498;13.462;2023-07-29T07:26:58;100454.06;;;24.39
72236;BMP280;60146;52.498;13.462;2023-07-29T07:29:23;100457.91;;;24.55
72236;BMP280;60146;52.498;13.462;2023-07-29T07:31:53;100449.50;;;24.81
72236;BMP280;60146;52.498;13.462;2023-07-29T07:34:19;100452.56;;;24.82
72236;BMP280;60146;52.498;13.462;2023-07-29T07:36:44;100446.38;;;25.06
72236;BMP280;60146;52.498;13.462;2023-07-29T07:39:10;100447.94;;;24.93
72236;BMP280;60146;52.498;13.462;2023-07-29T07:41:35;100438.75;;;24.98
72236;BMP280;60146;52.498;13.462;2023-07-29T07:44:00;100440.22;;;25.22
72236;BMP280;60146;52.498;13.462;2023-07-29T07:46:32;100438.91;;;25.61
72236;BMP280;60146;52.498;13.462;2023-07-29T07:49:04;100437.06;;;25.44
72236;BMP280;60146;52.498;13.462;2023-07-29T07:51:29;100430.78;;;25.74
72236;BMP280;60146;52.498;13.462;2023-07-29T07:53:55;100437.69;;;25.72
72236;BMP280;60146;52.498;13.462;2023-07-29T07:56:20;100430.28;;;25.96
72236;BMP280;60146;52.498;13.462;2023-07-29T07:58:45;100426.19;;;26.31
72236;BMP280;60146;52.498;13.462;2023-07-29T08:01:10;100422.97;;;26.46
72236;BMP280;60146;52.498;13.462;2023-07-29T08:03:36;100422.81;;;26.63
72236;BMP280;60146;52.498;13.462;2023-07-29T08:06:02;100421.00;;;26.54
72236;BMP280;60146;52.498;13.462;2023-07-29T08:08:27;100424.78;;;26.20
72236;BMP280;60146;52.498;13.462;2023-07-29T08:10:54;100425.78;;;26.33
72236;BMP280;60146;52.498;13.462;2023-07-29T08:13:20;100417.44;;;26.21
72236;BMP280;60146;52.498;13.462;2023-07-29T08:15:47;100426.63;;;25.60
72236;BMP280;60146;52.498;13.462;2023-07-29T08:18:12;100434.97;;;25.86
72236;BMP280;60146;52.498;13.462;2023-07-29T08:20:38;100429.06;;;26.11
72236;BMP280;60146;52.498;13.462;2023-07-29T08:23:06;100419.59;;;26.36
72236;BMP280;60146;52.498;13.462;2023-07-29T08:25:31;100418.09;;;26.77
72236;BMP280;60146;52.498;13.462;2023-07-29T08:27:56;100422.03;;;27.06
72236;BMP280;60146;52.498;13.462;2023-07-29T08:30:22;100414.19;;;27.18
72236;BMP280;60146;52.498;13.462;2023-07-29T08:32:47;100422.94;;;27.25
72236;BMP280;60146;52.498;13.462;2023-07-29T08:35:13;100413.97;;;27.35
72236;BMP280;60146;52.498;13.462;2023-07-29T08:37:38;100409.75;;;27.30
72236;BMP280;60146;52.498;13.462;2023-07-29T08:40:04;100400.16;;;27.33
72236;BMP280;60146;52.498;13.462;2023-07-29T08:42:31;100408.31;;;27.26
72236;BMP280;60146;52.498;13.462;2023-07-29T08:45:01;100405.06;;;27.38
72236;BMP280;60146;52.498;13.462;2023-07-29T08:47:31;100415.94;;;27.57
72236;BMP280;60146;52.498;13.462;2023-07-29T08:49:56;100402.78;;;27.62
72236;BMP280;60146;52.498;13.462;2023-07-29T08:52:23;100396.59;;;27.65
72236;BMP280;60146;52.498;13.462;2023-07-29T08:54:51;100412.44;;;27.89
72236;BMP280;60146;52.498;13.462;2023-07-29T08:57:18;100406.19;;;27.66
72236;BMP280;60146;52.498;13.462;2023-07-29T08:59:45;100406.78;;;27.51
72236;BMP280;60146;52.498;13.462;2023-07-29T09:02:11;100406.31;;;27.85
72236;BMP280;60146;52.498;13.462;2023-07-29T09:04:36;100409.81;;;28.08
72236;BMP280;60146;52.498;13.462;2023-07-29T09:07:02;100398.44;;;28.83
72236;BMP280;60146;52.498;13.462;2023-07-29T09:09:27;100405.53;;;29.46
72236;BMP280;60146;52.498;13.462;2023-07-29T09:11:53;100395.50;;;30.09
72236;BMP280;60146;52.498;13.462;2023-07-29T09:14:19;100399.31;;;30.11
72236;BMP280;60146;52.498;13.462;2023-07-29T09:16:45;100398.72;;;30.04
72236;BMP280;60146;52.498;13.462;2023-07-29T09:19:11;100397.69;;;30.14
72236;BMP280;60146;52.498;13.462;2023-07-29T09:21:39;100382.44;;;30.63
72236;BMP280;60146;52.498;13.462;2023-07-29T09:24:05;100382.19;;;30.85
72236;BMP280;60146;52.498;13.462;2023-07-29T09:26:32;100376.97;;;30.23
72236;BMP280;60146;52.498;13.462;2023-07-29T09:28:59;100374.88;;;29.52
72236;BMP280;60146;52.498;13.462;2023-07-29T09:31:27;100379.88;;;29.19
72236;BMP280;60146;52.498;13.462;2023-07-29T09:33:58;100379.22;;;28.78
72236;BMP280;60146;52.498;13.462;2023-07-29T09:36:24;100380.19;;;28.68
72236;BMP280;60146;52.498;13.462;2023-07-29T09:38:53;100372.72;;;28.75
72236;BMP280;60146;52.498;13.462;2023-07-29T09:41:18;100364.75;;;29.06
72236;BMP280;60146;52.498;13.462;2023-07-29T09:43:44;100377.25;;;29.97
72236;BMP280;60146;52.498;13.462;2023-07-29T09:46:09;100361.56;;;30.36
72236;BMP280;60146;52.498;13.462;2023-07-29T09:48:35;100356.19;;;30.48
72236;BMP280;60146;52.498;13.462;2023-07-29T09:51:11;100368.56;;;29.90
72236;BMP280;60146;52.498;13.462;2023-07-29T09:53:44;100360.16;;;29.38
72236;BMP280;60146;52.498;13.462;2023-07-29T09:56:10;100358.06;;;29.11
72236;BMP280;60146;52.498;13.462;2023-07-29T09:58:36;100352.56;;;28.99
72236;BMP280;60146;52.498;13.462;2023-07-29T10:01:06;100345.84;;;29.06
72236;BMP280;60146;52.498;13.462;2023-07-29T10:03:33;100347.19;;;29.80
72236;BMP280;60146;52.498;13.462;2023-07-29T10:06:03;100340.84;;;30.29
72236;BMP280;60146;52.498;13.462;2023-07-29T10:08:32;100354.09;;;30.67
72236;BMP280;60146;52.498;13.462;2023-07-29T10:11:01;100344.56;;;30.35
72236;BMP280;60146;52.498;13.462;2023-07-29T10:13:27;100335.72;;;31.11
72236;BMP280;60146;52.498;13.462;2023-07-29T10:15:56;100336.88;;;31.58
72236;BMP280;60146;52.498;13.462;2023-07-29T10:18:22;100318.69;;;30.74
72236;BMP280;60146;52.498;13.462;2023-07-29T10:20:50;100329.84;;;30.20
72236;BMP280;60146;52.498;13.462;2023-07-29T10:23:17;100331.09;;;30.59
72236;BMP280;60146;52.498;13.462;2023-07-29T10:25:47;100324.47;;;31.00
72236;BMP280;60146;52.498;13.462;2023-07-29T10:28:15;100317.66;;;30.44
72236;BMP280;60146;52.498;13.462;2023-07-29T10:30:41;100318.59;;;29.94
72236;BMP280;60146;52.498;13.462;2023-07-29T10:33:06;100317.94;;;29.44
72236;BMP280;60146;52.498;13.462;2023-07-29T10:35:33;100309.06;;;29.28
72236;BMP280;60146;52.498;13.462;2023-07-29T10:37:59;100306.09;;;29.38
72236;BMP280;60146;52.498;13.462;2023-07-29T10:40:25;100304.44;;;29.59
72236;BMP280;60146;52.498;13.462;2023-07-29T10:43:01;100301.25;;;29.49
72236;BMP280;60146;52.498;13.462;2023-07-29T10:45:36;100299.38;;;29.30
72236;BMP280;60146;52.498;13.462;2023-07-29T10:48:39;100295.84;;;28.83
72236;BMP280;60146;52.498;13.462;2023-07-29T10:50:50;100282.19;;;28.71
72236;BMP280;60146;52.498;13.462;2023-07-29T10:53:17;100262.97;;;28.69
72236;BMP280;60146;52.498;13.462;2023-07-29T10:55:43;100261.53;;;29.15
72236;BMP280;60146;52.498;13.462;2023-07-29T10:58:15;100280.63;;;29.70
72236;BMP280;60146;52.498;13.462;2023-07-29T11:00:45;100286.28;;;29.60
72236;BMP280;60146;52.498;13.462;2023-07-29T11:03:12;100281.47;;;29.05
72236;BMP280;60146;52.498;13.462;2023-07-29T11:05:46;100291.00;;;28.56
72236;BMP280;60146;52.498;13.462;2023-07-29T11:08:18;100292.75;;;27.61
72236;BMP280;60146;52.498;13.462;2023-07-29T11:11:01;100286.09;;;27.43
72236;BMP280;60146;52.498;13.462;2023-07-29T11:13:28;100267.28;;;27.13
72236;BMP280;60146;52.498;13.462;2023-07-29T11:15:55;100279.78;;;27.01
72236;BMP280;60146;52.498;13.462;2023-07-29T11:18:21;100302.47;;;26.71
72236;BMP280;60146;52.498;13.462;2023-07-29T11:20:46;100330.81;;;26.42
72236;BMP280;60146;52.498;13.462;2023-07-29T11:23:13;100357.03;;;25.89
72236;BMP280;60146;52.498;13.462;2023-07-29T11:25:38;100402.81;;;22.71
72236;BMP280;60146;52.498;13.462;2023-07-29T11:28:04;100440.16;;;21.07
72236;BMP280;60146;52.498;13.462;2023-07-29T11:30:29;100384.81;;;21.00
72236;BMP280;60146;52.498;13.462;2023-07-29T11:32:57;100372.88;;;20.91
72236;BMP280;60146;52.498;13.462;2023-07-29T11:35:23;100361.16;;;20.96
72236;BMP280;60146;52.498;13.462;2023-07-29T11:37:50;100357.97;;;20.87
72236;BMP280;60146;52.498;13.462;2023-07-29T11:40:17;100337.06;;;20.89
72236;BMP280;60146;52.498;13.462;2023-07-29T11:42:43;100323.00;;;20.92
72236;BMP280;60146;52.498;13.462;2023-07-29T11:45:09;100320.84;;;21.00
72236;BMP280;60146;52.498;13.462;2023-07-29T11:47:36;100301.22;;;21.12
72236;BMP280;60146;52.498;13.462;2023-07-29T11:50:07;100296.72;;;21.16
72236;BMP280;60146;52.498;13.462;2023-07-29T11:52:35;100288.50;;;21.31
72236;BMP280;60146;52.498;13.462;2023-07-29T11:55:02;100274.22;;;21.45
72236;BMP280;60146;52.498;13.462;2023-07-29T11:57:28;100261.41;;;21.61
72236;BMP280;60146;52.498;13.462;2023-07-29T11:59:54;100257.28;;;21.63
72236;BMP280;60146;52.498;13.462;2023-07-29T12:02:20;100247.44;;;21.38
72236;BMP280;60146;52.498;13.462;2023-07-29T12:04:47;100232.75;;;21.51
72236;BMP280;60146;52.498;13.462;2023-07-29T12:07:14;100236.69;;;21.64
72236;BMP280;60146;52.498;13.462;2023-07-29T12:09:41;100229.75;;;21.56
72236;BMP280;60146;52.498;13.462;2023-07-29T12:12:07;100226.38;;;21.62
72236;BMP280;60146;52.498;13.462;2023-07-29T12:14:34;100224.94;;;21.72
72236;BMP280;60146;52.498;13.462;2023-07-29T12:17:04;100219.59;;;21.72
72236;BMP280;60146;52.498;13.462;2023-07-29T12:19:33;100217.69;;;21.72
72236;BMP280;60146;52.498;13.462;2023-07-29T12:22:03;100218.78;;;21.68
72236;BMP280;60146;52.498;13.462;2023-07-29T12:24:33;100216.56;;;21.70
72236;BMP280;60146;52.498;13.462;2023-07-29T12:26:59;100221.84;;;21.66
72236;BMP280;60146;52.498;13.462;2023-07-29T12:29:25;100201.53;;;21.55
72236;BMP280;60146;52.498;13.462;2023-07-29T12:31:59;100196.69;;;21.67
72236;BMP280;60146;52.498;13.462;2023-07-29T12:34:26;100198.16;;;21.61
72236;BMP280;60146;52.498;13.462;2023-07-29T12:36:53;100197.31;;;21.54
72236;BMP280;60146;52.498;13.462;2023-07-29T12:39:28;100194.09;;;21.77
72236;BMP280;60146;52.498;13.462;2023-07-29T12:41:55;100181.59;;;21.42
72236;BMP280;60146;52.498;13.462;2023-07-29T12:44:22;100173.72;;;22.05
72236;BMP280;60146;52.498;13.462;2023-07-29T12:46:48;100158.75;;;22.50
72236;BMP280;60146;52.498;13.462;2023-07-29T12:49:13;100140.91;;;22.71
72236;BMP280;60146;52.498;13.462;2023-07-29T12:51:39;100123.44;;;23.45
72236;BMP280;60146;52.498;13.462;2023-07-29T12:54:04;100111.25;;;23.44
72236;BMP280;60146;52.498;13.462;2023-07-29T12:56:30;100113.84;;;24.89
72236;BMP280;60146;52.498;13.462;2023-07-29T12:58:57;100089.84;;;25.93
72236;BMP280;60146;52.498;13.462;2023-07-29T13:01:23;100084.41;;;26.55
72236;BMP280;60146;52.498;13.462;2023-07-29T13:03:48;100103.47;;;26.67
72236;BMP280;60146;52.498;13.462;2023-07-29T13:06:14;100128.69;;;26.99
72236;BMP280;60146;52.498;13.462;2023-07-29T13:08:40;100124.09;;;26.74
72236;BMP280;60146;52.498;13.462;2023-07-29T13:11:06;100147.34;;;27.12
72236;BMP280;60146;52.498;13.462;2023-07-29T13:13:31;100201.94;;;26.87
72236;BMP280;60146;52.498;13.462;2023-07-29T13:15:57;100214.38;;;26.45
72236;BMP280;60146;52.498;13.462;2023-07-29T13:18:23;100230.06;;;27.34
72236;BMP280;60146;52.498;13.462;2023-07-29T13:20:48;100237.78;;;27.99
72236;BMP280;60146;52.498;13.462;2023-07-29T13:23:14;100255.28;;;27.88
72236;BMP280;60146;52.498;13.462;2023-07-29T13:25:42;100270.50;;;27.79
72236;BMP280;60146;52.498;13.462;2023-07-29T13:28:12;100277.44;;;27.54
72236;BMP280;60146;52.498;13.462;2023-07-29T13:30:40;100269.75;;;27.01
72236;BMP280;60146;52.498;13.462;2023-07-29T13:33:08;100279.09;;;26.93
72236;BMP280;60146;52.498;13.462;2023-07-29T13:35:33;100279.38;;;27.28
72236;BMP280;60146;52.498;13.462;2023-07-29T13:38:00;100283.25;;;27.75
72236;BMP280;60146;52.498;13.462;2023-07-29T13:40:25;100285.97;;;28.16
72236;BMP280;60146;52.498;13.462;2023-07-29T13:42:51;100278.88;;;28.98
72236;BMP280;60146;52.498;13.462;2023-07-29T13:45:17;100289.06;;;29.72
72236;BMP280;60146;52.498;13.462;2023-07-29T13:47:43;100286.34;;;29.87